Time;durP1;ratioP1;P1;durP2;ratioP2;P2;SDS_P1;SDS_P2;PMS_P1;PMS_P2;Temp;Humidity;BMP_temperature;BMP_pressure;BME280_temperature;BME280_humidity;BME280_pressure;Samples;Min_cycle;Max_cycle;Signal;HPM_P1;HPM_P2
2023/05/10 00:00:10;;;;;;;0.20;0.20;;;;;;;20.28;51.94;100451.16;5115068;27;20039;-42
2023/05/10 00:02:36;;;;;;;0.20;0.20;;;;;;;20.26;52.09;100445.94;5095729;28;20522;-43
2023/05/10 00:05:02;;;;;;;0.20;0.20;;;;;;;20.26;51.87;100445.94;5114501;28;20555;-42
2023/05/10 00:07:27;;;;;;;0.20;0.20;;;;;;;20.25;52.05;100444.31;5114891;27;20047;-47
2023/05/10 00:09:53;;;;;;;0.20;0.20;;;;;;;20.26;51.77;100445.13;5114087;27;20043;-42
2023/05/10 00:12:19;;;;;;;0.20;0.20;;;;;;;20.26;52.16;100445.13;5114488;28;20406;-42
2023/05/10 00:14:45;;;;;;;0.20;0.20;;;;;;;20.26;51.94;100445.13;5114511;28;20047;-44
2023/05/10 00:17:10;;;;;;;0.20;0.20;;;;;;;20.26;52.02;100447.91;5114598;28;20035;-42
2023/05/10 00:19:36;;;;;;;0.20;0.20;;;;;;;20.26;51.86;100439.59;5114301;27;20051;-46
2023/05/10 00:22:01;;;;;;;0.20;0.20;;;;;;;20.26;52.14;100450.66;5114679;28;20593;-42
2023/05/10 00:24:27;;;;;;;0.22;0.22;;;;;;;20.26;52.18;100439.59;5114289;28;20419;-43
2023/05/10 00:26:53;;;;;;;0.20;0.20;;;;;;;20.26;52.13;100440.44;5115035;28;20081;-44
2023/05/10 00:29:19;;;;;;;0.20;0.20;;;;;;;20.26;51.90;100443.19;5114359;27;20055;-42
2023/05/10 00:31:45;;;;;;;0.20;0.20;;;;;;;20.26;51.88;100445.13;5114079;27;20082;-46
2023/05/10 00:34:10;;;;;;;0.20;0.20;;;;;;;20.25;51.84;100440.69;5114604;28;20078;-42
2023/05/10 00:36:36;;;;;;;0.20;0.20;;;;;;;20.25;52.05;100444.31;5113939;27;20054;-43
2023/05/10 00:39:03;;;;;;;0.20;0.20;;;;;;;20.25;52.01;100449.84;5115339;27;20039;-41
2023/05/10 00:41:32;;;;;;;0.20;0.20;;;;;;;20.26;51.90;100447.91;5118183;27;20509;-42
2023/05/10 00:43:57;;;;;;;0.20;0.20;;;;;;;20.25;52.08;100449.84;5138440;27;20050;-42
2023/05/10 00:46:23;;;;;;;0.20;0.20;;;;;;;20.25;52.00;100449.00;5147224;27;20046;-43
2023/05/10 00:48:49;;;;;;;0.20;0.20;;;;;;;20.26;52.04;100447.91;5150757;27;20042;-43
2023/05/10 00:51:14;;;;;;;0.20;0.20;;;;;;;20.25;52.31;100446.22;5120952;27;20046;-41
2023/05/10 00:53:40;;;;;;;0.20;0.20;;;;;;;20.24;51.74;100448.19;5099094;28;20135;-43
2023/05/10 00:56:06;;;;;;;0.20;0.20;;;;;;;20.25;52.03;100452.63;5117466;28;20066;-45
2023/05/10 00:58:32;;;;;;;0.20;0.20;;;;;;;20.24;52.01;100458.41;5118350;27;20046;-42
2023/05/10 01:00:58;;;;;;;0.20;0.20;;;;;;;20.24;51.84;100463.94;5117580;27;20047;-45
2023/05/10 01:03:25;;;;;;;0.20;0.20;;;;;;;20.24;52.25;100461.19;5099658;28;20047;-44
2023/05/10 01:05:50;;;;;;;0.20;0.20;;;;;;;20.24;51.78;100458.41;5117940;28;20447;-44
2023/05/10 01:08:16;;;;;;;0.20;0.20;;;;;;;20.24;52.23;100459.25;5118234;28;20478;-43
2023/05/10 01:10:42;;;;;;;0.20;0.20;;;;;;;20.24;51.99;100455.66;5117828;27;20047;-45
2023/05/10 01:13:09;;;;;;;0.20;0.20;;;;;;;20.24;51.98;100450.94;5117757;28;20058;-43
2023/05/10 01:15:35;;;;;;;0.20;0.20;;;;;;;20.24;52.02;100452.88;5106451;27;20085;-42
2023/05/10 01:18:01;;;;;;;0.20;0.20;;;;;;;20.23;51.80;100454.03;5138847;27;20039;-44
2023/05/10 01:20:32;;;;;;;0.20;0.20;;;;;;;20.23;51.97;100451.25;5138508;27;20070;-42
2023/05/10 01:23:23;;;;;;;0.20;0.20;;;;;;;20.23;52.11;100465.91;5138643;27;20047;-41
2023/05/10 01:26:20;;;;;;;0.30;0.30;;;;;;;20.23;51.82;100463.13;5123745;27;20086;-41
2023/05/10 01:28:59;;;;;;;0.20;0.20;;;;;;;20.24;51.77;100461.19;5138841;27;20496;-42
2023/05/10 01:31:48;;;;;;;0.20;0.20;;;;;;;20.23;51.93;100462.31;5119657;27;20277;-42
2023/05/10 01:34:18;;;;;;;0.20;0.20;;;;;;;20.22;51.67;100457.91;5117659;28;20055;-42
2023/05/10 01:36:48;;;;;;;0.20;0.20;;;;;;;20.23;51.69;100454.03;5117599;28;20100;-43
2023/05/10 01:39:18;;;;;;;0.20;0.20;;;;;;;20.22;51.84;100457.91;5118082;28;20070;-45
2023/05/10 01:42:08;;;;;;;0.20;0.20;;;;;;;20.23;51.90;100460.38;5115572;28;20051;-42
2023/05/10 01:44:37;;;;;;;0.20;0.20;;;;;;;20.22;51.81;100461.50;5120601;27;20106;-43
2023/05/10 01:47:10;;;;;;;0.20;0.20;;;;;;;20.22;51.73;100463.44;5130859;27;20077;-43
2023/05/10 01:49:46;;;;;;;0.20;0.20;;;;;;;20.22;51.94;100467.03;5134268;27;20054;-42
2023/05/10 01:52:14;;;;;;;0.20;0.20;;;;;;;20.22;51.86;100463.44;5137344;27;20126;-42
2023/05/10 01:54:43;;;;;;;0.10;0.10;;;;;;;20.21;51.95;100457.09;5119456;27;20547;-43
2023/05/10 01:57:09;;;;;;;0.20;0.20;;;;;;;20.21;51.74;100457.09;5137780;27;20054;-43
2023/05/10 01:59:36;;;;;;;0.20;0.20;;;;;;;20.21;52.16;100451.56;5119286;27;20451;-43
2023/05/10 02:02:02;;;;;;;0.20;0.20;;;;;;;20.21;51.82;100454.34;5138417;27;20474;-41
2023/05/10 02:04:29;;;;;;;0.20;0.20;;;;;;;20.21;52.03;100453.50;5137913;27;20506;-42
2023/05/10 02:06:55;;;;;;;0.20;0.20;;;;;;;20.22;51.97;100460.69;5137386;27;20043;-44
2023/05/10 02:09:21;;;;;;;0.20;0.20;;;;;;;20.21;51.92;100457.09;5114072;27;20051;-44
2023/05/10 02:11:48;;;;;;;0.30;0.30;;;;;;;20.22;51.77;100466.22;5117432;27;20058;-42
2023/05/10 02:14:15;;;;;;;0.28;0.28;;;;;;;20.20;51.82;100458.19;5117088;28;20294;-42
2023/05/10 02:16:41;;;;;;;0.20;0.20;;;;;;;20.22;52.14;100471.75;5098250;28;20043;-42
2023/05/10 02:19:08;;;;;;;0.20;0.20;;;;;;;20.21;51.90;100461.81;5116964;28;20051;-44
2023/05/10 02:21:35;;;;;;;0.20;0.20;;;;;;;20.21;51.93;100472.88;5116947;27;20275;-43
2023/05/10 02:24:02;;;;;;;0.20;0.20;;;;;;;20.21;51.74;100473.69;5116909;28;20636;-42
2023/05/10 02:26:28;;;;;;;0.20;0.20;;;;;;;20.20;52.07;100477.53;5098146;28;20085;-43
2023/05/10 02:28:54;;;;;;;0.20;0.20;;;;;;;20.21;51.84;100476.44;5116077;28;20624;-46
2023/05/10 02:31:21;;;;;;;0.20;0.20;;;;;;;20.21;51.80;100481.16;5116346;27;20066;-41
2023/05/10 02:33:48;;;;;;;0.20;0.20;;;;;;;20.20;51.96;100476.72;5116615;28;20329;-44
2023/05/10 02:36:13;;;;;;;0.20;0.20;;;;;;;20.20;51.84;100482.25;5116333;27;20074;-43
2023/05/10 02:38:40;;;;;;;0.20;0.20;;;;;;;20.20;51.93;100479.50;5116271;28;20431;-42
2023/05/10 02:41:07;;;;;;;0.30;0.30;;;;;;;20.20;51.67;100480.31;5116211;27;20047;-42
2023/05/10 02:43:33;;;;;;;0.20;0.20;;;;;;;20.19;51.79;100481.44;5116738;28;20047;-42
2023/05/10 02:45:59;;;;;;;0.20;0.20;;;;;;;20.20;51.78;100476.72;5113472;27;20098;-41
2023/05/10 02:48:25;;;;;;;0.30;0.30;;;;;;;20.20;51.76;100480.31;5157312;27;20505;-44
2023/05/10 02:50:52;;;;;;;0.20;0.20;;;;;;;20.19;51.66;100478.69;5130079;27;20039;-43
2023/05/10 02:53:23;;;;;;;0.20;0.20;;;;;;;20.20;51.93;100485.03;5119385;27;20411;-42
2023/05/10 02:55:52;;;;;;;0.30;0.30;;;;;;;20.19;51.89;100483.38;5117993;27;20043;-41
2023/05/10 02:58:19;;;;;;;0.20;0.20;;;;;;;20.19;51.80;100477.84;5117882;27;20041;-42
2023/05/10 03:00:46;;;;;;;0.20;0.20;;;;;;;20.19;51.84;100481.44;5136293;27;20085;-45
2023/05/10 03:03:11;;;;;;;0.20;0.20;;;;;;;20.19;52.05;100475.91;5136505;27;20046;-42
2023/05/10 03:05:37;;;;;;;0.20;0.20;;;;;;;20.19;51.86;100472.31;5118255;27;20051;-45
2023/05/10 03:08:04;;;;;;;0.20;0.20;;;;;;;20.19;51.97;100484.19;5136361;27;20038;-42
2023/05/10 03:10:30;;;;;;;0.20;0.20;;;;;;;20.19;51.77;100486.16;5135822;27;20042;-43
2023/05/10 03:13:18;;;;;;;0.20;0.20;;;;;;;20.20;51.85;100487.78;5117779;27;20130;-43
2023/05/10 03:15:55;;;;;;;0.20;0.20;;;;;;;20.19;51.83;100491.69;5121431;27;20074;-42
2023/05/10 03:18:23;;;;;;;0.20;0.20;;;;;;;20.18;51.69;100488.09;5135861;27;20196;-43
2023/05/10 03:20:51;;;;;;;0.20;0.20;;;;;;;20.18;51.67;100490.88;5116931;27;20053;-42
2023/05/10 03:23:23;;;;;;;0.20;0.20;;;;;;;20.20;51.83;100498.84;5135795;27;20103;-43
2023/05/10 03:25:50;;;;;;;0.20;0.20;;;;;;;20.19;51.76;100497.22;5117739;27;20467;-45
2023/05/10 03:28:16;;;;;;;0.20;0.20;;;;;;;20.19;51.76;100498.03;5136041;27;20047;-43
2023/05/10 03:30:43;;;;;;;0.20;0.20;;;;;;;20.18;51.83;100496.38;5135720;27;20077;-43
2023/05/10 03:33:09;;;;;;;0.20;0.20;;;;;;;20.18;51.83;100495.56;5135922;27;20073;-43
2023/05/10 03:35:34;;;;;;;0.20;0.20;;;;;;;20.18;51.65;100493.63;5136511;27;20486;-43
2023/05/10 03:38:01;;;;;;;0.20;0.20;;;;;;;20.18;51.77;100498.34;5116972;27;20185;-43
2023/05/10 03:40:28;;;;;;;0.20;0.20;;;;;;;20.18;52.03;100499.16;5117128;27;20051;-44
2023/05/10 03:42:55;;;;;;;0.20;0.20;;;;;;;20.19;51.93;100505.50;5135964;27;20520;-43
2023/05/10 03:45:20;;;;;;;0.20;0.20;;;;;;;20.19;51.75;100508.28;5126577;27;20056;-42
2023/05/10 03:47:46;;;;;;;0.20;0.20;;;;;;;20.18;51.82;100509.41;5135228;27;20494;-44
2023/05/10 03:50:12;;;;;;;0.20;0.20;;;;;;;20.18;51.69;100510.22;5135579;27;20426;-43
2023/05/10 03:52:39;;;;;;;0.30;0.30;;;;;;;20.18;51.69;100515.75;5135337;27;20498;-42
2023/05/10 03:55:06;;;;;;;0.22;0.22;;;;;;;20.18;51.94;100512.16;5135467;27;20073;-43
2023/05/10 03:57:32;;;;;;;0.20;0.20;;;;;;;20.18;51.58;100512.16;5136361;27;20405;-42
2023/05/10 03:59:57;;;;;;;0.20;0.20;;;;;;;20.18;51.75;100520.47;5135498;27;20050;-43
2023/05/10 04:02:23;;;;;;;0.20;0.20;;;;;;;20.17;51.94;100513.28;5135803;27;20077;-44
2023/05/10 04:04:49;;;;;;;0.20;0.20;;;;;;;20.17;51.53;100519.63;5136059;27;20874;-42
2023/05/10 04:07:14;;;;;;;0.20;0.20;;;;;;;20.17;51.61;100518.81;5117441;27;20050;-42
2023/05/10 04:09:40;;;;;;;0.20;0.20;;;;;;;20.18;51.84;100514.94;5135500;27;20050;-42
2023/05/10 04:12:06;;;;;;;0.20;0.20;;;;;;;20.17;51.82;100507.75;5135450;27;20053;-43
2023/05/10 04:14:34;;;;;;;0.20;0.20;;;;;;;20.17;51.87;100514.09;5118717;27;20143;-42
2023/05/10 04:16:59;;;;;;;0.20;0.20;;;;;;;20.17;51.70;100516.88;5139672;27;20458;-44
2023/05/10 04:19:29;;;;;;;0.20;0.20;;;;;;;20.17;51.94;100518.81;5138767;27;20050;-41
2023/05/10 04:21:54;;;;;;;0.20;0.20;;;;;;;20.17;51.84;100516.06;5138692;27;20095;-41
2023/05/10 04:24:20;;;;;;;0.20;0.20;;;;;;;20.17;51.70;100513.28;5138796;27;20417;-42
2023/05/10 04:26:46;;;;;;;0.20;0.20;;;;;;;20.18;52.87;100518.50;5139433;27;20043;-41
2023/05/10 04:29:11;;;;;;;0.20;0.20;;;;;;;20.19;52.70;100517.38;5139138;27;20074;-44
2023/05/10 04:31:37;;;;;;;0.20;0.20;;;;;;;20.19;52.40;100513.81;5138966;27;20445;-44
2023/05/10 04:34:03;;;;;;;0.20;0.20;;;;;;;20.19;52.34;100511.84;5120076;27;20054;-43
2023/05/10 04:36:29;;;;;;;0.20;0.20;;;;;;;20.18;51.99;100514.94;5135611;27;20055;-41
2023/05/10 04:38:54;;;;;;;0.20;0.20;;;;;;;20.18;53.66;100515.75;5134185;27;20042;-41
2023/05/10 04:41:20;;;;;;;0.20;0.20;;;;;;;20.19;52.52;100516.56;5131628;27;20047;-44
2023/05/10 04:43:48;;;;;;;0.20;0.20;;;;;;;20.18;52.89;100512.16;5125463;27;20279;-43
2023/05/10 04:46:14;;;;;;;0.20;0.20;;;;;;;20.18;51.92;100518.50;5140647;27;20046;-42
2023/05/10 04:48:40;;;;;;;0.20;0.20;;;;;;;20.17;52.21;100527.94;5138913;27;20057;-42
2023/05/10 04:51:06;;;;;;;0.20;0.20;;;;;;;20.18;52.96;100526.00;5122979;27;20045;-43
2023/05/10 04:53:32;;;;;;;0.20;0.20;;;;;;;20.17;51.84;100519.63;5118461;27;20067;-41
2023/05/10 04:55:57;;;;;;;0.20;0.20;;;;;;;20.18;52.27;100526.81;5107549;27;20054;-42
2023/05/10 04:58:23;;;;;;;0.20;0.20;;;;;;;20.18;52.19;100528.75;5138849;27;20051;-41
2023/05/10 05:00:49;;;;;;;0.20;0.20;;;;;;;20.17;51.76;100527.13;5138593;27;20051;-42
2023/05/10 05:03:14;;;;;;;0.20;0.20;;;;;;;20.17;52.10;100527.94;5138829;27;20801;-41
2023/05/10 05:05:40;;;;;;;0.20;0.20;;;;;;;20.17;51.78;100532.66;5135328;27;20043;-42
2023/05/10 05:08:06;;;;;;;0.20;0.20;;;;;;;20.17;51.73;100540.94;5135398;27;20483;-43
2023/05/10 05:10:32;;;;;;;0.20;0.20;;;;;;;20.16;51.88;100539.25;5129157;27;20039;-41
2023/05/10 05:12:57;;;;;;;0.20;0.20;;;;;;;20.16;51.99;100544.78;5101677;27;20051;-42
2023/05/10 05:15:23;;;;;;;0.20;0.20;;;;;;;20.15;51.65;100545.91;5126780;27;20049;-42
2023/05/10 05:17:49;;;;;;;0.20;0.20;;;;;;;20.15;51.77;100546.75;5118721;27;20484;-41
2023/05/10 05:20:14;;;;;;;0.20;0.20;;;;;;;20.15;51.92;100555.03;5135646;27;20046;-44
2023/05/10 05:22:40;;;;;;;0.30;0.30;;;;;;;20.16;52.00;100564.16;5130202;27;20841;-41
2023/05/10 05:25:06;;;;;;;0.22;0.22;;;;;;;20.17;52.08;100550.06;5133657;27;20708;-42
2023/05/10 05:27:32;;;;;;;0.20;0.20;;;;;;;20.16;51.76;100558.63;5119652;27;20039;-42
2023/05/10 05:29:58;;;;;;;0.20;0.20;;;;;;;20.16;52.11;100556.69;5127695;27;20039;-41
2023/05/10 05:32:24;;;;;;;0.20;0.20;;;;;;;20.15;51.77;100560.56;5126979;27;20038;-42
2023/05/10 05:34:51;;;;;;;0.20;0.20;;;;;;;20.15;51.63;100565.28;5119594;27;20042;-42
2023/05/10 05:37:18;;;;;;;0.20;0.20;;;;;;;20.17;52.12;100565.81;5117390;27;20075;-42
2023/05/10 05:39:43;;;;;;;0.20;0.20;;;;;;;20.16;52.18;100570.50;5137396;27;20055;-41
2023/05/10 05:42:09;;;;;;;0.20;0.20;;;;;;;20.16;51.57;100572.44;5131140;27;20264;-42
2023/05/10 05:44:35;;;;;;;0.20;0.20;;;;;;;20.16;51.75;100572.44;5108850;27;20475;-41
2023/05/10 05:47:01;;;;;;;0.20;0.20;;;;;;;20.21;52.40;100566.88;5100036;28;20047;-43
2023/05/10 05:49:26;;;;;;;0.20;0.20;;;;;;;20.20;52.24;100571.56;5119740;27;20047;-42
2023/05/10 05:51:52;;;;;;;0.20;0.20;;;;;;;20.19;51.93;100582.91;5132542;27;20061;-41
2023/05/10 05:54:18;;;;;;;0.20;0.20;;;;;;;20.19;51.91;100583.75;5133406;27;20049;-43
2023/05/10 05:56:44;;;;;;;0.20;0.20;;;;;;;20.18;52.11;100579.34;5132177;27;20443;-42
2023/05/10 05:59:10;;;;;;;0.20;0.20;;;;;;;20.17;51.90;100586.00;5119079;27;20035;-43
2023/05/10 06:01:36;;;;;;;0.20;0.20;;;;;;;20.17;52.35;100586.00;5093834;27;20715;-41
2023/05/10 06:04:01;;;;;;;0.20;0.20;;;;;;;20.16;52.04;100591.78;5112903;27;20061;-43
2023/05/10 06:06:27;;;;;;;0.20;0.20;;;;;;;20.17;51.88;100599.81;5116477;27;20046;-42
2023/05/10 06:08:53;;;;;;;0.20;0.20;;;;;;;20.17;51.84;100601.75;5111924;27;20537;-43
2023/05/10 06:11:20;;;;;;;0.20;0.20;;;;;;;20.16;52.06;100603.69;5116492;27;20051;-43
2023/05/10 06:13:47;;;;;;;0.20;0.20;;;;;;;20.16;52.98;100600.91;5122134;27;20474;-42
2023/05/10 06:16:13;;;;;;;0.20;0.20;;;;;;;20.16;51.92;100609.22;5106154;27;20042;-42
2023/05/10 06:18:38;;;;;;;0.20;0.20;;;;;;;20.16;51.95;100603.69;5121952;27;20081;-42
2023/05/10 06:21:04;;;;;;;0.20;0.20;;;;;;;20.16;51.95;100608.38;5117220;27;20045;-42
2023/05/10 06:23:30;;;;;;;0.20;0.20;;;;;;;20.18;52.23;100608.94;5122418;27;20110;-42
2023/05/10 06:25:56;;;;;;;0.20;0.20;;;;;;;20.16;52.01;100611.97;5124419;27;20058;-42
2023/05/10 06:28:21;;;;;;;0.30;0.30;;;;;;;20.16;52.09;100611.97;5121312;27;20551;-44
2023/05/10 06:30:47;;;;;;;0.20;0.20;;;;;;;20.17;52.17;100615.59;5122276;27;20042;-42
2023/05/10 06:33:13;;;;;;;0.20;0.20;;;;;;;20.17;52.15;100616.41;5123952;27;20929;-41
2023/05/10 06:35:39;;;;;;;0.20;0.20;;;;;;;20.17;51.87;100621.13;5115187;27;20066;-42
2023/05/10 06:38:04;;;;;;;0.20;0.20;;;;;;;20.15;51.74;100624.16;5116335;27;20058;-41
2023/05/10 06:40:30;;;;;;;0.20;0.20;;;;;;;20.09;56.16;100625.34;5117616;27;20084;-39
2023/05/10 06:42:56;;;;;;;0.20;0.20;;;;;;;20.16;54.07;100622.22;5123809;27;20047;-42
2023/05/10 06:45:21;;;;;;;0.20;0.20;;;;;;;20.17;53.37;100623.88;5124963;27;20104;-41
2023/05/10 06:47:47;;;;;;;0.20;0.20;;;;;;;20.17;52.80;100624.69;5122570;27;20049;-41
2023/05/10 06:50:13;;;;;;;0.20;0.20;;;;;;;20.18;52.87;100631.06;5111298;27;20614;-42
2023/05/10 06:52:39;;;;;;;0.20;0.20;;;;;;;20.18;52.46;100634.63;5121817;27;20950;-41
2023/05/10 06:55:05;;;;;;;0.20;0.20;;;;;;;20.19;52.60;100627.97;5097861;27;20137;-41
2023/05/10 06:57:31;;;;;;;0.20;0.20;;;;;;;20.19;52.58;100640.97;5111463;27;20342;-41
2023/05/10 06:59:58;;;;;;;0.30;0.30;;;;;;;20.20;52.52;100642.63;5107355;27;20103;-41
2023/05/10 07:02:24;;;;;;;0.20;0.20;;;;;;;20.20;52.39;100640.69;5103571;27;20058;-42
2023/05/10 07:04:51;;;;;;;0.20;0.20;;;;;;;20.20;52.31;100637.09;5078705;27;20115;-41
2023/05/10 07:07:17;;;;;;;0.20;0.20;;;;;;;20.20;52.23;100635.16;5090244;27;20042;-41
2023/05/10 07:09:43;;;;;;;0.22;0.22;;;;;;;20.21;52.53;100638.75;5103594;27;20850;-41
2023/05/10 07:12:09;;;;;;;0.20;0.20;;;;;;;20.21;52.44;100642.34;5105319;27;21674;-41
2023/05/10 07:14:38;;;;;;;0.20;0.20;;;;;;;20.20;52.40;100637.91;5112934;27;20446;-42
2023/05/10 07:17:04;;;;;;;0.20;0.20;;;;;;;20.19;52.42;100641.81;5125501;27;20117;-41
2023/05/10 07:19:32;;;;;;;0.20;0.20;;;;;;;20.21;52.25;100639.59;5114949;27;21462;-41
2023/05/10 07:21:58;;;;;;;0.20;0.20;;;;;;;20.22;52.32;100640.41;5121371;27;20047;-41
2023/05/10 07:24:24;;;;;;;0.20;0.20;;;;;;;20.23;52.16;100648.38;5122972;27;20438;-42
2023/05/10 07:26:49;;;;;;;0.20;0.20;;;;;;;20.24;52.41;100646.44;5127646;27;20068;-42
2023/05/10 07:29:15;;;;;;;0.20;0.20;;;;;;;20.23;52.38;100653.91;5116894;27;20103;-45
2023/05/10 07:31:42;;;;;;;0.20;0.20;;;;;;;20.25;52.34;100650.84;5121565;27;20053;-41
2023/05/10 07:34:08;;;;;;;0.20;0.20;;;;;;;20.25;52.29;100648.09;5103387;27;20150;-42
2023/05/10 07:36:34;;;;;;;0.20;0.20;;;;;;;20.25;52.55;100645.31;5115917;27;20051;-41
2023/05/10 07:39:00;;;;;;;0.20;0.20;;;;;;;20.25;52.28;100653.63;5096698;27;20078;-41
2023/05/10 07:41:26;;;;;;;0.20;0.20;;;;;;;20.27;52.18;100654.16;5114344;27;20047;-41
2023/05/10 07:43:51;;;;;;;0.20;0.20;;;;;;;20.27;52.12;100660.50;5116853;27;20078;-40
2023/05/10 07:46:19;;;;;;;0.60;0.60;;;;;;;20.27;53.04;100652.22;5121312;27;20058;-42
2023/05/10 07:48:45;;;;;;;0.15;0.15;;;;;;;20.29;52.56;100657.44;5123848;27;20681;-43
2023/05/10 07:51:10;;;;;;;0.20;0.20;;;;;;;20.26;53.89;100656.09;5122348;27;20505;-43
2023/05/10 07:53:37;;;;;;;0.20;0.20;;;;;;;20.30;52.73;100656.34;5123316;27;20046;-43
2023/05/10 07:56:20;;;;;;;0.20;0.20;;;;;;;20.31;52.54;100655.22;5107885;27;20039;-42
2023/05/10 07:58:46;;;;;;;0.20;0.20;;;;;;;20.29;52.66;100658.28;5099159;27;20222;-42
2023/05/10 08:01:12;;;;;;;0.20;0.20;;;;;;;20.21;54.86;100671.94;5123249;27;20711;-40
2023/05/10 08:03:37;;;;;;;0.20;0.20;;;;;;;20.14;54.99;100671.47;5110386;27;20134;-42
2023/05/10 08:06:03;;;;;;;0.20;0.20;;;;;;;20.23;54.55;100664.16;5104759;27;20061;-42
2023/05/10 08:08:29;;;;;;;0.20;0.20;;;;;;;20.27;54.07;100668.81;5109928;27;20276;-42
2023/05/10 08:10:55;;;;;;;0.20;0.20;;;;;;;20.27;53.81;100663.28;5110304;27;20043;-44
2023/05/10 08:13:21;;;;;;;0.20;0.20;;;;;;;20.35;53.42;100672.06;5093080;27;20732;-54
2023/05/10 08:15:47;;;;;;;0.20;0.20;;;;;;;20.40;54.56;100680.28;5117742;27;20043;-42
2023/05/10 08:18:13;;;;;;;0.20;0.20;;;;;;;20.39;54.72;100678.66;5094844;27;20415;-43
2023/05/10 08:20:39;;;;;;;0.25;0.25;;;;;;;20.41;55.31;100673.63;5092917;27;20051;-42
2023/05/10 08:23:04;;;;;;;0.20;0.20;;;;;;;20.48;56.35;100686.03;5119277;27;20066;-40
2023/05/10 08:25:31;;;;;;;0.20;0.20;;;;;;;20.34;56.41;100685.06;5114297;27;20046;-47
2023/05/10 08:27:56;;;;;;;0.20;0.20;;;;;;;20.43;56.59;100685.25;5093448;27;20043;-40
2023/05/10 08:30:22;;;;;;;0.20;0.20;;;;;;;20.42;56.37;100681.66;5106782;27;20055;-42
2023/05/10 08:32:48;;;;;;;0.20;0.20;;;;;;;20.45;56.65;100685.75;5109895;27;20811;-43
2023/05/10 08:35:15;;;;;;;0.20;0.20;;;;;;;20.52;57.97;100691.78;5099804;27;20049;-41
2023/05/10 08:37:41;;;;;;;0.20;0.20;;;;;;;20.59;58.13;100688.66;5103266;27;20099;-42
2023/05/10 08:40:10;;;;;;;0.20;0.20;;;;;;;20.56;57.60;100694.78;5099497;27;20047;-42
2023/05/10 08:42:37;;;;;;;0.20;0.20;;;;;;;20.55;57.51;100699.47;5091865;27;20042;-45
2023/05/10 08:45:04;;;;;;;0.20;0.20;;;;;;;20.55;57.54;100707.78;5088533;27;20129;-43
2023/05/10 08:47:30;;;;;;;0.20;0.20;;;;;;;20.60;58.19;100704.97;5117495;27;20055;-40
2023/05/10 08:49:59;;;;;;;0.20;0.20;;;;;;;20.63;57.96;100703.53;5123725;27;20137;-41
2023/05/10 08:52:26;;;;;;;0.20;0.20;;;;;;;20.60;57.55;100704.97;5123578;27;20074;-42
2023/05/10 08:54:52;;;;;;;0.20;0.20;;;;;;;20.62;56.95;100713.78;5124462;27;20452;-43
2023/05/10 08:57:18;;;;;;;0.20;0.20;;;;;;;20.62;58.55;100718.50;5122854;27;20050;-44
2023/05/10 08:59:45;;;;;;;0.20;0.20;;;;;;;20.65;57.38;100720.69;5103178;27;20062;-41
2023/05/10 09:02:11;;;;;;;0.20;0.20;;;;;;;20.43;55.33;100719.25;5114833;27;20038;-43
2023/05/10 09:04:37;;;;;;;0.20;0.20;;;;;;;20.59;56.48;100724.63;5102592;27;20054;-43
2023/05/10 09:07:03;;;;;;;0.20;0.20;;;;;;;20.67;56.87;100729.50;5123571;27;20301;-50
2023/05/10 09:09:28;;;;;;;0.20;0.20;;;;;;;20.72;57.34;100723.91;5128444;27;20470;-40
2023/05/10 09:11:54;;;;;;;0.20;0.20;;;;;;;20.73;57.36;100729.16;5127426;27;20046;-42
2023/05/10 09:14:20;;;;;;;0.20;0.20;;;;;;;20.72;56.43;100733.03;5130516;27;20088;-44
2023/05/10 09:16:46;;;;;;;0.20;0.20;;;;;;;20.69;55.74;100735.56;5108386;27;20565;-43
2023/05/10 09:19:12;;;;;;;0.20;0.20;;;;;;;20.57;54.65;100735.16;5134531;27;20137;-41
2023/05/10 09:21:38;;;;;;;0.20;0.20;;;;;;;20.65;55.68;100740.88;5121920;27;20051;-43
2023/05/10 09:24:05;;;;;;;0.47;0.47;;;;;;;20.17;54.74;100740.81;5124174;27;20133;-45
2023/05/10 09:26:31;;;;;;;0.20;0.20;;;;;;;19.93;55.53;100751.00;5106998;27;20527;-43
2023/05/10 09:28:58;;;;;;;0.47;0.47;;;;;;;20.22;55.33;100739.94;5106849;27;20875;-43
2023/05/10 09:31:25;;;;;;;0.20;0.20;;;;;;;20.43;54.99;100744.13;5087274;27;20621;-43
2023/05/10 09:33:52;;;;;;;0.20;0.20;;;;;;;20.53;54.41;100743.22;5118367;27;20248;-42
2023/05/10 09:36:17;;;;;;;0.20;0.20;;;;;;;20.57;54.31;100741.53;5082906;27;20051;-42
2023/05/10 09:38:51;;;;;;;0.20;0.20;;;;;;;20.59;54.27;100741.22;5116293;27;20043;-43
2023/05/10 09:41:20;;;;;;;0.20;0.20;;;;;;;20.61;54.94;100747.28;5112867;27;20067;-44
2023/05/10 09:43:46;;;;;;;0.20;0.20;;;;;;;20.62;54.62;100744.22;5114162;27;20047;-41
2023/05/10 09:46:11;;;;;;;0.20;0.20;;;;;;;20.63;54.70;100747.81;5124625;27;20057;-45
2023/05/10 09:48:42;;;;;;;0.20;0.20;;;;;;;20.62;54.52;100744.22;5120717;27;20531;-41
2023/05/10 09:51:07;;;;;;;0.20;0.20;;;;;;;20.63;54.72;100753.34;5119933;27;20310;-44
2023/05/10 09:53:33;;;;;;;0.20;0.20;;;;;;;20.64;54.94;100752.22;5101168;27;20563;-43
2023/05/10 09:55:59;;;;;;;0.20;0.20;;;;;;;20.65;54.71;100751.13;5130023;27;20448;-42
2023/05/10 09:58:24;;;;;;;0.20;0.20;;;;;;;20.65;54.75;100759.41;5119676;27;20043;-43
2023/05/10 10:00:52;;;;;;;0.20;0.20;;;;;;;20.65;54.82;100753.88;5122678;27;20095;-43
2023/05/10 10:03:20;;;;;;;0.20;0.20;;;;;;;20.65;55.19;100753.88;5122972;27;21161;-43
2023/05/10 10:05:47;;;;;;;0.10;0.10;;;;;;;20.66;54.91;100758.28;5111457;27;20043;-43
2023/05/10 10:08:13;;;;;;;0.20;0.20;;;;;;;20.64;54.97;100755.84;5129617;27;20134;-45
2023/05/10 10:10:40;;;;;;;0.20;0.20;;;;;;;20.65;54.65;100757.47;5107957;27;20400;-43
2023/05/10 10:13:06;;;;;;;0.20;0.20;;;;;;;20.65;54.23;100765.78;5088402;27;20543;-42
2023/05/10 10:15:33;;;;;;;0.20;0.20;;;;;;;20.66;54.05;100761.06;5107029;27;20483;-42
2023/05/10 10:17:59;;;;;;;0.20;0.20;;;;;;;20.63;54.25;100756.09;5108116;27;20053;-44
2023/05/10 10:20:26;;;;;;;0.20;0.20;;;;;;;20.65;54.39;100760.25;5125175;27;20579;-45
2023/05/10 10:22:52;;;;;;;0.20;0.20;;;;;;;20.66;54.72;100761.06;5104444;27;20186;-42
2023/05/10 10:25:19;;;;;;;0.20;0.20;;;;;;;20.66;54.47;100763.84;5100686;27;20716;-44
2023/05/10 10:28:14;;;;;;;0.10;0.10;;;;;;;20.67;54.41;100773.78;5105101;27;20410;-44
2023/05/10 10:30:43;;;;;;;0.20;0.20;;;;;;;20.67;54.58;100774.59;5112794;27;20627;-42
2023/05/10 10:36:03;;;;;;;0.20;0.20;;;;;;;20.66;54.18;100770.19;5145104;27;20124;-44
2023/05/10 10:38:41;;;;;;;0.20;0.20;;;;;;;20.67;54.08;100777.34;5134431;27;20099;-42
2023/05/10 10:41:27;;;;;;;0.20;0.20;;;;;;;20.67;54.21;100777.34;5130356;27;20188;-44
2023/05/10 10:44:33;;;;;;;0.20;0.20;;;;;;;20.66;54.31;100772.13;5133375;27;20053;-43
2023/05/10 10:49:54;;;;;;;0.20;0.20;;;;;;;20.50;54.19;100777.81;5154635;27;20124;-43
2023/05/10 10:52:39;;;;;;;0.20;0.20;;;;;;;20.61;54.13;100780.50;5124443;27;20046;-44
2023/05/10 10:55:14;;;;;;;0.20;0.20;;;;;;;20.64;54.35;100771.59;5128473;27;20058;-42
2023/05/10 11:03:10;;;;;;;0.20;0.20;;;;;;;20.66;54.00;100786.78;5136505;27;20122;-44
2023/05/10 11:05:43;;;;;;;0.25;0.25;;;;;;;20.67;53.88;100784.84;5107916;27;20042;-45
2023/05/10 11:08:15;;;;;;;0.20;0.20;;;;;;;20.67;53.97;100784.84;5120658;27;20046;-45
2023/05/10 11:10:51;;;;;;;0.20;0.20;;;;;;;20.67;54.07;100788.44;5118377;27;20054;-45
2023/05/10 11:13:29;;;;;;;0.20;0.20;;;;;;;20.67;53.98;100782.91;5099830;27;20136;-41
2023/05/10 11:15:56;;;;;;;0.20;0.20;;;;;;;20.67;53.81;100793.97;5118891;27;20047;-46
2023/05/10 11:18:26;;;;;;;0.20;0.20;;;;;;;20.67;53.57;100788.44;5104702;27;20274;-46
2023/05/10 11:21:03;;;;;;;0.20;0.20;;;;;;;20.68;53.69;100792.88;5113796;27;20046;-45
2023/05/10 11:23:31;;;;;;;0.20;0.20;;;;;;;20.68;53.79;100787.34;5101812;27;20038;-45
2023/05/10 11:25:57;;;;;;;;;;;;;;;20.68;53.88;100794.78;5136615;27;20049;-44
2023/05/10 11:28:22;;;;;;;0.20;0.20;;;;;;;20.68;53.88;100792.00;5132177;27;19981;-44
2023/05/10 11:30:48;;;;;;;0.30;0.30;;;;;;;20.67;53.80;100799.50;5124001;27;20049;-44
2023/05/10 11:33:16;;;;;;;0.20;0.20;;;;;;;20.68;53.97;100792.88;5122495;27;20236;-43
2023/05/10 11:35:42;;;;;;;0.20;0.20;;;;;;;20.69;53.74;100802.00;5095519;27;20050;-44